sensor_id;sensor_type;location;lat;lon;timestamp;pressure;altitude;pressure_sealevel;temperature;humidity
59106;BME280;44891;50.204;8.132;2022-08-01T00:00:25;98269.81;;;20.73;68.54
59106;BME280;44891;50.204;8.132;2022-08-01T00:04:27;98268.34;;;20.67;68.98
59106;BME280;44891;50.204;8.132;2022-08-01T00:08:30;98276.19;;;20.63;68.88
59106;BME280;44891;50.204;8.132;2022-08-01T00:12:32;98269.44;;;20.66;68.64
59106;BME280;44891;50.204;8.132;2022-08-01T00:16:34;98270.13;;;20.49;69.74
59106;BME280;44891;50.204;8.132;2022-08-01T00:20:37;98250.34;;;20.36;70.04
59106;BME280;44891;50.204;8.132;2022-08-01T00:24:40;98274.16;;;20.46;70.36
59106;BME280;44891;50.204;8.132;2022-08-01T00:28:42;98275.09;;;20.28;70.88
59106;BME280;44891;50.204;8.132;2022-08-01T00:32:44;98277.66;;;20.05;71.91
59106;BME280;44891;50.204;8.132;2022-08-01T00:36:46;98284.97;;;19.86;72.40
59106;BME280;44891;50.204;8.132;2022-08-01T00:40:50;98279.47;;;19.82;72.63
59106;BME280;44891;50.204;8.132;2022-08-01T00:44:52;98279.75;;;19.67;73.88
59106;BME280;44891;50.204;8.132;2022-08-01T00:48:54;98279.25;;;19.65;74.02
59106;BME280;44891;50.204;8.132;2022-08-01T00:52:58;98279.03;;;19.48;74.79
59106;BME280;44891;50.204;8.132;2022-08-01T00:57:03;98285.19;;;19.16;75.55
59106;BME280;44891;50.204;8.132;2022-08-01T01:01:05;98283.81;;;19.18;75.68
59106;BME280;44891;50.204;8.132;2022-08-01T01:05:08;98280.94;;;19.15;76.36
59106;BME280;44891;50.204;8.132;2022-08-01T01:09:25;98280.72;;;19.11;75.41
59106;BME280;44891;50.204;8.132;2022-08-01T01:13:34;98270.72;;;19.22;75.69
59106;BME280;44891;50.204;8.132;2022-08-01T01:17:41;98278.53;;;18.99;76.98
59106;BME280;44891;50.204;8.132;2022-08-01T01:21:58;98261.72;;;18.85;76.51
59106;BME280;44891;50.204;8.132;2022-08-01T01:26:20;98280.41;;;18.80;77.34
59106;BME280;44891;50.204;8.132;2022-08-01T01:30:26;98277.19;;;18.83;77.39
59106;BME280;44891;50.204;8.132;2022-08-01T01:34:32;98286.25;;;18.63;78.47
59106;BME280;44891;50.204;8.132;2022-08-01T01:38:39;98271.78;;;18.51;78.51
59106;BME280;44891;50.204;8.132;2022-08-01T01:42:43;98285.81;;;18.56;78.77
59106;BME280;44891;50.204;8.132;2022-08-01T01:46:48;98286.44;;;18.48;79.40
59106;BME280;44891;50.204;8.132;2022-08-01T01:50:52;98284.88;;;18.47;78.31
59106;BME280;44891;50.204;8.132;2022-08-01T01:54:55;98298.31;;;18.37;79.50
59106;BME280;44891;50.204;8.132;2022-08-01T01:59:01;98290.03;;;18.38;79.40
59106;BME280;44891;50.204;8.132;2022-08-01T02:03:07;98289.88;;;18.48;78.42
59106;BME280;44891;50.204;8.132;2022-08-01T02:07:13;98294.72;;;18.46;78.62
59106;BME280;44891;50.204;8.132;2022-08-01T02:11:16;98284.13;;;18.41;79.29
59106;BME280;44891;50.204;8.132;2022-08-01T02:15:23;98288.75;;;18.55;78.21
59106;BME280;44891;50.204;8.132;2022-08-01T02:19:27;98293.06;;;18.32;79.50
59106;BME280;44891;50.204;8.132;2022-08-01T02:23:32;98282.47;;;18.27;80.75
59106;BME280;44891;50.204;8.132;2022-08-01T02:27:41;98286.38;;;18.34;80.22
59106;BME280;44891;50.204;8.132;2022-08-01T02:31:47;98290.16;;;18.28;80.59
59106;BME280;44891;50.204;8.132;2022-08-01T02:35:54;98297.22;;;18.19;81.39
59106;BME280;44891;50.204;8.132;2022-08-01T02:39:59;98295.84;;;18.21;80.80
59106;BME280;44891;50.204;8.132;2022-08-01T02:44:03;98291.47;;;18.31;81.15
59106;BME280;44891;50.204;8.132;2022-08-01T02:48:09;98300.63;;;18.43;80.87
59106;BME280;44891;50.204;8.132;2022-08-01T02:52:15;98293.38;;;18.49;81.22
59106;BME280;44891;50.204;8.132;2022-08-01T02:56:19;98290.84;;;18.58;80.56
59106;BME280;44891;50.204;8.132;2022-08-01T03:00:23;98288.97;;;18.58;80.48
59106;BME280;44891;50.204;8.132;2022-08-01T03:04:26;98284.66;;;18.62;80.49
59106;BME280;44891;50.204;8.132;2022-08-01T03:08:30;98291.56;;;18.63;80.38
59106;BME280;44891;50.204;8.132;2022-08-01T03:12:34;98295.75;;;18.69;80.49
59106;BME280;44891;50.204;8.132;2022-08-01T03:16:38;98296.38;;;18.80;80.13
59106;BME280;44891;50.204;8.132;2022-08-01T03:20:43;98291.44;;;18.73;80.60
59106;BME280;44891;50.204;8.132;2022-08-01T03:24:49;98297.97;;;18.81;80.53
59106;BME280;44891;50.204;8.132;2022-08-01T03:28:56;98294.94;;;18.88;80.40
59106;BME280;44891;50.204;8.132;2022-08-01T03:32:59;98294.81;;;18.79;81.11
59106;BME280;44891;50.204;8.132;2022-08-01T03:37:05;98300.66;;;18.95;80.47
59106;BME280;44891;50.204;8.132;2022-08-01T03:41:13;98304.47;;;19.08;79.79
59106;BME280;44891;50.204;8.132;2022-08-01T03:45:21;98301.38;;;19.00;80.60
59106;BME280;44891;50.204;8.132;2022-08-01T03:49:29;98303.03;;;19.15;79.90
59106;BME280;44891;50.204;8.132;2022-08-01T03:53:32;98290.84;;;19.28;78.79
59106;BME280;44891;50.204;8.132;2022-08-01T03:57:37;98291.72;;;19.37;77.53
59106;BME280;44891;50.204;8.132;2022-08-01T04:01:40;98299.75;;;19.51;76.85
59106;BME280;44891;50.204;8.132;2022-08-01T04:05:42;98293.41;;;19.47;77.04
59106;BME280;44891;50.204;8.132;2022-08-01T04:09:44;98293.25;;;19.57;77.25
59106;BME280;44891;50.204;8.132;2022-08-01T04:13:48;98299.88;;;19.60;76.94
59106;BME280;44891;50.204;8.132;2022-08-01T04:17:50;98294.47;;;19.65;77.05
59106;BME280;44891;50.204;8.132;2022-08-01T04:21:52;98293.06;;;19.67;77.22
59106;BME280;44891;50.204;8.132;2022-08-01T04:25:55;98303.06;;;19.62;77.59
59106;BME280;44891;50.204;8.132;2022-08-01T04:30:00;98305.03;;;19.70;77.11
59106;BME280;44891;50.204;8.132;2022-08-01T04:34:04;98303.31;;;19.60;77.47
59106;BME280;44891;50.204;8.132;2022-08-01T04:38:08;98309.75;;;19.59;77.78
59106;BME280;44891;50.204;8.132;2022-08-01T04:42:11;98324.63;;;19.60;77.45
59106;BME280;44891;50.204;8.132;2022-08-01T04:46:17;98326.72;;;19.63;77.56
59106;BME280;44891;50.204;8.132;2022-08-01T04:50:20;98327.84;;;19.76;77.17
59106;BME280;44891;50.204;8.132;2022-08-01T04:54:24;98332.06;;;19.77;77.20
59106;BME280;44891;50.204;8.132;2022-08-01T04:58:26;98333.56;;;19.83;77.30
59106;BME280;44891;50.204;8.132;2022-08-01T05:02:29;98341.06;;;19.81;76.56
59106;BME280;44891;50.204;8.132;2022-08-01T05:06:31;98341.72;;;19.73;77.25
59106;BME280;44891;50.204;8.132;2022-08-01T05:10:33;98329.59;;;19.67;77.02
59106;BME280;44891;50.204;8.132;2022-08-01T05:14:37;98337.31;;;19.82;77.55
59106;BME280;44891;50.204;8.132;2022-08-01T05:18:40;98339.59;;;19.89;77.20
59106;BME280;44891;50.204;8.132;2022-08-01T05:22:42;98345.41;;;19.91;78.25
59106;BME280;44891;50.204;8.132;2022-08-01T05:26:44;98349.47;;;19.88;78.79
59106;BME280;44891;50.204;8.132;2022-08-01T05:30:46;98344.41;;;20.00;77.85
59106;BME280;44891;50.204;8.132;2022-08-01T05:34:50;98346.81;;;20.16;75.51
59106;BME280;44891;50.204;8.132;2022-08-01T05:38:52;98338.69;;;20.21;74.95
59106;BME280;44891;50.204;8.132;2022-08-01T05:42:54;98349.34;;;20.07;75.33
59106;BME280;44891;50.204;8.132;2022-08-01T05:46:57;98347.56;;;20.30;74.65
59106;BME280;44891;50.204;8.132;2022-08-01T05:51:00;98347.66;;;20.38;74.81
59106;BME280;44891;50.204;8.132;2022-08-01T05:55:03;98348.94;;;20.41;74.24
59106;BME280;44891;50.204;8.132;2022-08-01T05:59:05;98355.38;;;20.54;73.96
59106;BME280;44891;50.204;8.132;2022-08-01T06:03:07;98357.50;;;20.66;73.65
59106;BME280;44891;50.204;8.132;2022-08-01T06:07:11;98365.25;;;20.53;74.44
59106;BME280;44891;50.204;8.132;2022-08-01T06:11:13;98364.03;;;20.59;74.07
59106;BME280;44891;50.204;8.132;2022-08-01T06:15:15;98367.09;;;20.67;73.20
59106;BME280;44891;50.204;8.132;2022-08-01T06:19:17;98375.25;;;20.48;73.37
59106;BME280;44891;50.204;8.132;2022-08-01T06:23:21;98382.53;;;20.70;72.92
59106;BME280;44891;50.204;8.132;2022-08-01T06:27:23;98383.09;;;20.67;73.01
59106;BME280;44891;50.204;8.132;2022-08-01T06:31:26;98386.47;;;20.72;73.41
59106;BME280;44891;50.204;8.132;2022-08-01T06:35:28;98387.38;;;20.68;73.91
59106;BME280;44891;50.204;8.132;2022-08-01T06:39:32;98396.84;;;20.60;73.95
59106;BME280;44891;50.204;8.132;2022-08-01T06:43:35;98387.06;;;20.69;73.87
59106;BME280;44891;50.204;8.132;2022-08-01T06:47:37;98394.94;;;20.88;73.14
59106;BME280;44891;50.204;8.132;2022-08-01T06:51:40;98393.78;;;20.67;74.34
59106;BME280;44891;50.204;8.132;2022-08-01T06:55:43;98395.84;;;20.83;73.63
59106;BME280;44891;50.204;8.132;2022-08-01T06:59:45;98392.28;;;20.88;73.37
59106;BME280;44891;50.204;8.132;2022-08-01T07:03:47;98380.66;;;20.92;73.05
59106;BME280;44891;50.204;8.132;2022-08-01T07:07:50;98383.91;;;21.03;73.21
59106;BME280;44891;50.204;8.132;2022-08-01T07:11:54;98378.28;;;21.50;70.83
59106;BME280;44891;50.204;8.132;2022-08-01T07:15:56;98380.78;;;21.68;70.50
59106;BME280;44891;50.204;8.132;2022-08-01T07:19:58;98373.19;;;21.93;68.99
59106;BME280;44891;50.204;8.132;2022-08-01T07:24:01;98373.59;;;22.09;69.09
59106;BME280;44891;50.204;8.132;2022-08-01T07:28:04;98379.00;;;21.95;69.76
59106;BME280;44891;50.204;8.132;2022-08-01T07:32:12;98379.91;;;22.21;68.14
59106;BME280;44891;50.204;8.132;2022-08-01T07:36:20;98381.81;;;22.21;68.38
59106;BME280;44891;50.204;8.132;2022-08-01T07:40:22;98374.91;;;22.29;68.09
59106;BME280;44891;50.204;8.132;2022-08-01T07:44:26;98379.47;;;22.37;68.11
59106;BME280;44891;50.204;8.132;2022-08-01T07:48:28;98376.66;;;22.42;67.77
59106;BME280;44891;50.204;8.132;2022-08-01T07:52:31;98376.16;;;22.31;68.07
59106;BME280;44891;50.204;8.132;2022-08-01T07:56:33;98369.28;;;21.99;69.32
59106;BME280;44891;50.204;8.132;2022-08-01T08:00:36;98363.97;;;21.77;69.63
59106;BME280;44891;50.204;8.132;2022-08-01T08:04:38;98368.00;;;22.05;67.38
59106;BME280;44891;50.204;8.132;2022-08-01T08:08:40;98370.09;;;22.08;67.78
59106;BME280;44891;50.204;8.132;2022-08-01T08:12:42;98377.06;;;22.18;67.51
59106;BME280;44891;50.204;8.132;2022-08-01T08:16:48;98350.19;;;22.23;66.45
59106;BME280;44891;50.204;8.132;2022-08-01T08:20:50;98378.25;;;22.43;66.61
59106;BME280;44891;50.204;8.132;2022-08-01T08:24:52;98382.53;;;22.61;64.80
59106;BME280;44891;50.204;8.132;2022-08-01T08:28:54;98380.81;;;22.65;65.11
59106;BME280;44891;50.204;8.132;2022-08-01T08:32:58;98372.16;;;22.77;63.78
59106;BME280;44891;50.204;8.132;2022-08-01T08:37:01;98374.97;;;23.50;61.67
59106;BME280;44891;50.204;8.132;2022-08-01T08:41:03;98373.03;;;23.85;60.40
59106;BME280;44891;50.204;8.132;2022-08-01T08:45:06;98382.06;;;23.72;60.51
59106;BME280;44891;50.204;8.132;2022-08-01T08:49:11;98386.63;;;23.54;59.87
59106;BME280;44891;50.204;8.132;2022-08-01T08:53:15;98382.47;;;23.82;60.87
59106;BME280;44891;50.204;8.132;2022-08-01T08:57:19;98379.44;;;23.28;61.97
59106;BME280;44891;50.204;8.132;2022-08-01T09:01:22;98375.81;;;23.24;61.63
59106;BME280;44891;50.204;8.132;2022-08-01T09:05:25;98368.97;;;23.62;61.03
59106;BME280;44891;50.204;8.132;2022-08-01T09:09:28;98370.06;;;23.69;60.56
59106;BME280;44891;50.204;8.132;2022-08-01T09:13:30;98373.78;;;23.94;58.96
59106;BME280;44891;50.204;8.132;2022-08-01T09:17:40;98372.44;;;23.71;58.29
59106;BME280;44891;50.204;8.132;2022-08-01T09:21:56;98363.53;;;23.87;56.77
59106;BME280;44891;50.204;8.132;2022-08-01T09:25:59;98360.03;;;23.96;56.48
59106;BME280;44891;50.204;8.132;2022-08-01T09:30:09;98374.09;;;24.31;55.70
59106;BME280;44891;50.204;8.132;2022-08-01T09:34:12;98365.50;;;24.88;55.70
59106;BME280;44891;50.204;8.132;2022-08-01T09:38:18;98364.00;;;25.20;53.86
59106;BME280;44891;50.204;8.132;2022-08-01T09:42:23;98365.78;;;25.16;53.21
59106;BME280;44891;50.204;8.132;2022-08-01T09:46:25;98369.38;;;25.20;52.96
59106;BME280;44891;50.204;8.132;2022-08-01T09:50:38;98377.56;;;24.31;55.59
59106;BME280;44891;50.204;8.132;2022-08-01T09:54:43;98374.94;;;24.73;54.67
59106;BME280;44891;50.204;8.132;2022-08-01T09:58:55;98372.44;;;24.68;54.90
59106;BME280;44891;50.204;8.132;2022-08-01T10:02:57;98366.63;;;24.66;54.37
59106;BME280;44891;50.204;8.132;2022-08-01T10:07:04;98365.84;;;24.65;53.88
59106;BME280;44891;50.204;8.132;2022-08-01T10:11:09;98370.09;;;24.66;54.91
59106;BME280;44891;50.204;8.132;2022-08-01T10:15:14;98372.94;;;25.45;53.20
59106;BME280;44891;50.204;8.132;2022-08-01T10:19:18;98363.44;;;25.60;52.33
59106;BME280;44891;50.204;8.132;2022-08-01T10:23:22;98363.63;;;25.75;50.77
59106;BME280;44891;50.204;8.132;2022-08-01T10:27:29;98361.06;;;25.91;48.40
59106;BME280;44891;50.204;8.132;2022-08-01T10:31:34;98362.38;;;25.40;50.48
59106;BME280;44891;50.204;8.132;2022-08-01T10:35:38;98349.28;;;25.38;49.90
59106;BME280;44891;50.204;8.132;2022-08-01T10:39:40;98349.09;;;25.10;50.18
59106;BME280;44891;50.204;8.132;2022-08-01T10:43:44;98348.25;;;25.31;49.62
59106;BME280;44891;50.204;8.132;2022-08-01T10:47:51;98352.31;;;25.37;50.13
59106;BME280;44891;50.204;8.132;2022-08-01T10:51:55;98343.84;;;25.26;50.54
59106;BME280;44891;50.204;8.132;2022-08-01T10:55:59;98333.72;;;25.44;49.46
59106;BME280;44891;50.204;8.132;2022-08-01T11:00:04;98330.13;;;25.97;48.96
59106;BME280;44891;50.204;8.132;2022-08-01T11:04:09;98312.16;;;26.14;47.92
59106;BME280;44891;50.204;8.132;2022-08-01T11:08:20;98317.34;;;25.82;49.04
59106;BME280;44891;50.204;8.132;2022-08-01T11:12:37;98316.63;;;26.87;46.36
59106;BME280;44891;50.204;8.132;2022-08-01T11:16:41;98317.28;;;27.24;45.77
59106;BME280;44891;50.204;8.132;2022-08-01T11:20:55;98311.19;;;26.71;45.40
59106;BME280;44891;50.204;8.132;2022-08-01T11:24:58;98317.09;;;26.24;46.57
59106;BME280;44891;50.204;8.132;2022-08-01T11:29:14;98317.50;;;26.38;46.53
59106;BME280;44891;50.204;8.132;2022-08-01T11:33:47;98311.78;;;26.52;46.41
59106;BME280;44891;50.204;8.132;2022-08-01T11:37:41;98310.94;;;27.04;44.21
59106;BME280;44891;50.204;8.132;2022-08-01T11:41:45;98306.19;;;27.73;42.95
59106;BME280;44891;50.204;8.132;2022-08-01T11:45:48;98311.47;;;27.53;42.77
59106;BME280;44891;50.204;8.132;2022-08-01T11:49:51;98299.16;;;27.24;43.15
59106;BME280;44891;50.204;8.132;2022-08-01T11:53:57;98311.69;;;27.32;44.59
59106;BME280;44891;50.204;8.132;2022-08-01T11:58:00;98300.59;;;27.34;42.79
59106;BME280;44891;50.204;8.132;2022-08-01T12:02:03;98303.34;;;26.53;45.56
59106;BME280;44891;50.204;8.132;2022-08-01T12:06:06;98299.47;;;26.26;45.91
59106;BME280;44891;50.204;8.132;2022-08-01T12:10:10;98300.94;;;26.76;45.26
59106;BME280;44891;50.204;8.132;2022-08-01T12:14:17;98302.72;;;27.00;44.32
59106;BME280;44891;50.204;8.132;2022-08-01T12:18:19;98301.56;;;27.14;44.12
59106;BME280;44891;50.204;8.132;2022-08-01T12:22:23;98303.81;;;26.55;45.18
59106;BME280;44891;50.204;8.132;2022-08-01T12:26:38;98300.50;;;26.22;45.88
59106;BME280;44891;50.204;8.132;2022-08-01T12:30:41;98302.06;;;26.23;46.14
59106;BME280;44891;50.204;8.132;2022-08-01T12:34:43;98302.28;;;26.18;47.31
59106;BME280;44891;50.204;8.132;2022-08-01T12:38:52;98299.38;;;26.11;47.18
59106;BME280;44891;50.204;8.132;2022-08-01T12:42:55;98309.00;;;26.24;47.08
59106;BME280;44891;50.204;8.132;2022-08-01T12:46:58;98306.13;;;26.69;46.38
59106;BME280;44891;50.204;8.132;2022-08-01T12:51:02;98308.50;;;26.59;46.45
59106;BME280;44891;50.204;8.132;2022-08-01T12:55:14;98307.50;;;26.91;45.58
59106;BME280;44891;50.204;8.132;2022-08-01T12:59:22;98305.06;;;26.86;46.08
59106;BME280;44891;50.204;8.132;2022-08-01T13:03:25;98304.47;;;26.65;45.69
59106;BME280;44891;50.204;8.132;2022-08-01T13:07:35;98304.47;;;26.65;46.18
59106;BME280;44891;50.204;8.132;2022-08-01T13:11:39;98309.28;;;26.59;45.02
59106;BME280;44891;50.204;8.132;2022-08-01T13:15:42;98313.53;;;26.72;45.01
59106;BME280;44891;50.204;8.132;2022-08-01T13:19:45;98319.88;;;26.27;47.19
59106;BME280;44891;50.204;8.132;2022-08-01T13:24:03;98305.66;;;26.15;48.17
59106;BME280;44891;50.204;8.132;2022-08-01T13:28:15;98313.53;;;25.95;48.57
59106;BME280;44891;50.204;8.132;2022-08-01T13:32:19;98316.66;;;25.97;48.97
59106;BME280;44891;50.204;8.132;2022-08-01T13:36:22;98317.31;;;25.94;48.95
59106;BME280;44891;50.204;8.132;2022-08-01T13:40:27;98317.09;;;25.87;49.11
59106;BME280;44891;50.204;8.132;2022-08-01T13:44:31;98318.47;;;25.48;50.12
59106;BME280;44891;50.204;8.132;2022-08-01T13:48:33;98312.31;;;25.47;50.19
59106;BME280;44891;50.204;8.132;2022-08-01T13:52:35;98326.06;;;25.79;49.96
59106;BME280;44891;50.204;8.132;2022-08-01T13:56:37;98327.09;;;25.99;48.81
59106;BME280;44891;50.204;8.132;2022-08-01T14:00:41;98321.47;;;26.04;49.49
59106;BME280;44891;50.204;8.132;2022-08-01T14:04:43;98324.59;;;26.83;47.38
59106;BME280;44891;50.204;8.132;2022-08-01T14:08:45;98317.19;;;26.80;48.13
59106;BME280;44891;50.204;8.132;2022-08-01T14:12:48;98314.28;;;26.20;49.42
59106;BME280;44891;50.204;8.132;2022-08-01T14:16:51;98313.09;;;26.70;47.94
59106;BME280;44891;50.204;8.132;2022-08-01T14:20:53;98315.44;;;25.83;49.86
59106;BME280;44891;50.204;8.132;2022-08-01T14:24:56;98306.19;;;26.33;48.81
59106;BME280;44891;50.204;8.132;2022-08-01T14:28:58;98311.69;;;26.36;48.37
59106;BME280;44891;50.204;8.132;2022-08-01T14:33:03;98313.38;;;26.41;48.68
59106;BME280;44891;50.204;8.132;2022-08-01T14:37:09;98313.75;;;26.67;47.41
59106;BME280;44891;50.204;8.132;2022-08-01T14:41:11;98315.44;;;26.72;47.28
59106;BME280;44891;50.204;8.132;2022-08-01T14:45:14;98315.22;;;27.49;44.49
59106;BME280;44891;50.204;8.132;2022-08-01T14:49:17;98314.75;;;27.03;46.24
59106;BME280;44891;50.204;8.132;2022-08-01T14:53:20;98313.72;;;27.35;44.75
59106;BME280;44891;50.204;8.132;2022-08-01T14:57:22;98314.19;;;26.81;45.51
59106;BME280;44891;50.204;8.132;2022-08-01T15:01:24;98308.72;;;26.94;45.14
59106;BME280;44891;50.204;8.132;2022-08-01T15:05:27;98309.72;;;27.29;44.61
59106;BME280;44891;50.204;8.132;2022-08-01T15:09:31;98305.88;;;27.46;43.75
59106;BME280;44891;50.204;8.132;2022-08-01T15:13:33;98305.34;;;27.25;42.92
59106;BME280;44891;50.204;8.132;2022-08-01T15:17:35;98306.63;;;26.87;43.99
59106;BME280;44891;50.204;8.132;2022-08-01T15:21:39;98312.94;;;26.79;44.68
59106;BME280;44891;50.204;8.132;2022-08-01T15:25:41;98309.59;;;26.42;44.91
59106;BME280;44891;50.204;8.132;2022-08-01T15:29:43;98305.78;;;26.71;45.06
59106;BME280;44891;50.204;8.132;2022-08-01T15:33:45;98316.31;;;26.48;44.97
59106;BME280;44891;50.204;8.132;2022-08-01T15:37:49;98315.81;;;26.34;46.49
59106;BME280;44891;50.204;8.132;2022-08-01T15:41:51;98325.94;;;26.37;46.22
59106;BME280;44891;50.204;8.132;2022-08-01T15:45:53;98316.59;;;26.34;46.23
59106;BME280;44891;50.204;8.132;2022-08-01T15:49:55;98315.31;;;25.79;46.79
59106;BME280;44891;50.204;8.132;2022-08-01T15:54:01;98327.19;;;25.90;47.11
59106;BME280;44891;50.204;8.132;2022-08-01T15:58:06;98323.16;;;25.84;47.12
59106;BME280;44891;50.204;8.132;2022-08-01T16:02:08;98317.00;;;25.96;46.14
59106;BME280;44891;50.204;8.132;2022-08-01T16:06:10;98324.59;;;25.82;47.92
59106;BME280;44891;50.204;8.132;2022-08-01T16:10:14;98314.63;;;25.94;48.64
59106;BME280;44891;50.204;8.132;2022-08-01T16:14:16;98325.13;;;25.63;49.36
59106;BME280;44891;50.204;8.132;2022-08-01T16:18:18;98328.81;;;25.58;49.26
59106;BME280;44891;50.204;8.132;2022-08-01T16:22:20;98328.44;;;25.47;49.39
59106;BME280;44891;50.204;8.132;2022-08-01T16:26:24;98341.19;;;25.26;49.82
59106;BME280;44891;50.204;8.132;2022-08-01T16:30:26;98327.28;;;25.24;50.62
59106;BME280;44891;50.204;8.132;2022-08-01T16:34:28;98338.56;;;25.17;50.87
59106;BME280;44891;50.204;8.132;2022-08-01T16:38:30;98334.28;;;25.37;50.89
59106;BME280;44891;50.204;8.132;2022-08-01T16:42:34;98331.28;;;25.18;50.75
59106;BME280;44891;50.204;8.132;2022-08-01T16:46:36;98332.09;;;25.18;50.00
59106;BME280;44891;50.204;8.132;2022-08-01T16:50:38;98327.50;;;24.98;49.63
59106;BME280;44891;50.204;8.132;2022-08-01T16:54:40;98336.00;;;25.00;49.95
59106;BME280;44891;50.204;8.132;2022-08-01T16:58:44;98339.13;;;25.11;49.91
59106;BME280;44891;50.204;8.132;2022-08-01T17:02:46;98330.31;;;25.23;49.47
59106;BME280;44891;50.204;8.132;2022-08-01T17:06:48;98332.53;;;25.20;49.57
59106;BME280;44891;50.204;8.132;2022-08-01T17:10:52;98327.78;;;25.38;49.19
59106;BME280;44891;50.204;8.132;2022-08-01T17:14:55;98333.72;;;25.44;49.32
59106;BME280;44891;50.204;8.132;2022-08-01T17:18:57;98329.47;;;25.10;49.96
59106;BME280;44891;50.204;8.132;2022-08-01T17:22:59;98326.00;;;24.67;51.33
59106;BME280;44891;50.204;8.132;2022-08-01T17:27:02;98337.97;;;24.49;51.91
59106;BME280;44891;50.204;8.132;2022-08-01T17:31:05;98343.41;;;24.82;51.02
59106;BME280;44891;50.204;8.132;2022-08-01T17:35:08;98347.28;;;24.52;50.88
59106;BME280;44891;50.204;8.132;2022-08-01T17:39:12;98348.50;;;24.63;50.03
59106;BME280;44891;50.204;8.132;2022-08-01T17:43:14;98350.16;;;24.47;50.32
59106;BME280;44891;50.204;8.132;2022-08-01T17:47:17;98344.59;;;24.52;50.50
59106;BME280;44891;50.204;8.132;2022-08-01T17:51:22;98347.56;;;24.59;50.33
59106;BME280;44891;50.204;8.132;2022-08-01T17:55:25;98352.94;;;24.59;50.69
59106;BME280;44891;50.204;8.132;2022-08-01T17:59:27;98346.44;;;24.60;51.23
59106;BME280;44891;50.204;8.132;2022-08-01T18:03:30;98358.41;;;24.62;51.84
59106;BME280;44891;50.204;8.132;2022-08-01T18:07:32;98361.31;;;24.36;53.04
59106;BME280;44891;50.204;8.132;2022-08-01T18:11:34;98364.50;;;24.21;54.09
59106;BME280;44891;50.204;8.132;2022-08-01T18:15:36;98357.44;;;24.08;53.95
59106;BME280;44891;50.204;8.132;2022-08-01T18:19:40;98364.09;;;24.10;54.55
59106;BME280;44891;50.204;8.132;2022-08-01T18:23:42;98366.00;;;24.01;54.80
59106;BME280;44891;50.204;8.132;2022-08-01T18:27:45;98366.22;;;23.87;54.47
59106;BME280;44891;50.204;8.132;2022-08-01T18:31:47;98369.59;;;23.58;55.33
59106;BME280;44891;50.204;8.132;2022-08-01T18:35:52;98370.38;;;23.59;55.62
59106;BME280;44891;50.204;8.132;2022-08-01T18:39:54;98371.69;;;23.36;55.98
59106;BME280;44891;50.204;8.132;2022-08-01T18:43:56;98386.50;;;23.42;55.85
59106;BME280;44891;50.204;8.132;2022-08-01T18:47:58;98376.41;;;23.30;55.65
59106;BME280;44891;50.204;8.132;2022-08-01T18:52:03;98380.06;;;23.25;56.24
59106;BME280;44891;50.204;8.132;2022-08-01T18:56:06;98382.13;;;23.11;56.54
59106;BME280;44891;50.204;8.132;2022-08-01T19:00:12;98394.25;;;23.00;57.77
59106;BME280;44891;50.204;8.132;2022-08-01T19:04:15;98379.72;;;22.66;57.45
59106;BME280;44891;50.204;8.132;2022-08-01T19:08:18;98392.63;;;22.73;57.97
59106;BME280;44891;50.204;8.132;2022-08-01T19:12:20;98400.50;;;22.69;58.72
59106;BME280;44891;50.204;8.132;2022-08-01T19:16:22;98396.19;;;22.51;59.75
59106;BME280;44891;50.204;8.132;2022-08-01T19:20:24;98406.25;;;22.37;60.03
59106;BME280;44891;50.204;8.132;2022-08-01T19:24:28;98415.03;;;22.29;60.24
59106;BME280;44891;50.204;8.132;2022-08-01T19:28:34;98424.41;;;22.09;60.59
59106;BME280;44891;50.204;8.132;2022-08-01T19:32:41;98428.31;;;21.80;62.02
59106;BME280;44891;50.204;8.132;2022-08-01T19:36:45;98437.50;;;21.65;62.53
59106;BME280;44891;50.204;8.132;2022-08-01T19:40:49;98437.22;;;21.67;63.31
59106;BME280;44891;50.204;8.132;2022-08-01T19:44:51;98443.66;;;21.43;64.00
59106;BME280;44891;50.204;8.132;2022-08-01T19:48:53;98453.78;;;21.19;65.37
59106;BME280;44891;50.204;8.132;2022-08-01T19:52:55;98458.28;;;21.10;65.60
59106;BME280;44891;50.204;8.132;2022-08-01T19:57:04;98458.75;;;21.12;65.97
59106;BME280;44891;50.204;8.132;2022-08-01T20:01:08;98461.66;;;21.02;66.09
59106;BME280;44891;50.204;8.132;2022-08-01T20:05:10;98474.03;;;20.84;66.47
59106;BME280;44891;50.204;8.132;2022-08-01T20:09:13;98452.31;;;20.63;67.37
59106;BME280;44891;50.204;8.132;2022-08-01T20:13:17;98471.75;;;20.36;68.43
59106;BME280;44891;50.204;8.132;2022-08-01T20:17:20;98470.34;;;20.38;69.04
59106;BME280;44891;50.204;8.132;2022-08-01T20:21:22;98482.31;;;20.27;69.44
59106;BME280;44891;50.204;8.132;2022-08-01T20:25:27;98477.78;;;20.28;69.37
59106;BME280;44891;50.204;8.132;2022-08-01T20:29:32;98475.50;;;20.21;69.48
59106;BME280;44891;50.204;8.132;2022-08-01T20:33:38;98483.47;;;20.07;69.68
59106;BME280;44891;50.204;8.132;2022-08-01T20:37:41;98477.03;;;19.95;70.27
59106;BME280;44891;50.204;8.132;2022-08-01T20:41:47;98484.34;;;19.70;70.63
59106;BME280;44891;50.204;8.132;2022-08-01T20:45:51;98490.25;;;19.67;70.76
59106;BME280;44891;50.204;8.132;2022-08-01T20:49:53;98477.31;;;19.42;71.36
59106;BME280;44891;50.204;8.132;2022-08-01T20:54:16;98489.38;;;19.34;71.52
59106;BME280;44891;50.204;8.132;2022-08-01T20:58:26;98492.97;;;19.06;73.74
59106;BME280;44891;50.204;8.132;2022-08-01T21:02:42;98495.13;;;19.04;73.86
59106;BME280;44891;50.204;8.132;2022-08-01T21:06:52;98497.97;;;19.31;73.26
59106;BME280;44891;50.204;8.132;2022-08-01T21:10:56;98491.84;;;19.31;72.81
59106;BME280;44891;50.204;8.132;2022-08-01T21:15:00;98495.00;;;19.33;73.23
59106;BME280;44891;50.204;8.132;2022-08-01T21:19:10;98496.50;;;19.39;72.83
59106;BME280;44891;50.204;8.132;2022-08-01T21:23:18;98505.09;;;19.36;73.28
59106;BME280;44891;50.204;8.132;2022-08-01T21:27:22;98500.19;;;19.43;72.24
59106;BME280;44891;50.204;8.132;2022-08-01T21:31:25;98500.31;;;19.33;72.83